sensor_id;sensor_type;location;lat;lon;timestamp;pressure;altitude;pressure_sealevel;temperature;humidity
66742;BME280;53654;54.152;19.432;2023-08-31T00:00:10;100404.08;;;18.12;100.00
66742;BME280;53654;54.152;19.432;2023-08-31T00:02:59;100406.02;;;18.08;100.00
66742;BME280;53654;54.152;19.432;2023-08-31T00:05:28;100400.41;;;18.08;100.00
66742;BME280;53654;54.152;19.432;2023-08-31T00:07:58;100402.06;;;18.06;100.00
66742;BME280;53654;54.152;19.432;2023-08-31T00:10:26;100402.95;;;18.06;100.00
66742;BME280;53654;54.152;19.432;2023-08-31T00:12:55;100404.38;;;18.06;100.00
66742;BME280;53654;54.152;19.432;2023-08-31T00:15:23;100406.41;;;18.03;100.00
66742;BME280;53654;54.152;19.432;2023-08-31T00:17:51;100408.39;;;18.03;100.00
66742;BME280;53654;54.152;19.432;2023-08-31T00:20:20;100410.31;;;18.03;100.00
66742;BME280;53654;54.152;19.432;2023-08-31T00:22:49;100408.58;;;18.02;100.00
66742;BME280;53654;54.152;19.432;2023-08-31T00:25:17;100412.23;;;18.03;100.00
66742;BME280;53654;54.152;19.432;2023-08-31T00:27:45;100411.91;;;18.03;100.00
66742;BME280;53654;54.152;19.432;2023-08-31T00:30:16;100414.30;;;18.01;100.00
66742;BME280;53654;54.152;19.432;2023-08-31T00:32:45;100412.00;;;17.97;100.00
66742;BME280;53654;54.152;19.432;2023-08-31T00:35:15;100415.15;;;17.94;100.00
66742;BME280;53654;54.152;19.432;2023-08-31T00:37:43;100415.92;;;17.92;100.00
66742;BME280;53654;54.152;19.432;2023-08-31T00:40:11;100416.34;;;17.91;100.00
66742;BME280;53654;54.152;19.432;2023-08-31T00:42:42;100418.63;;;17.91;100.00
66742;BME280;53654;54.152;19.432;2023-08-31T00:45:10;100415.73;;;17.89;100.00
66742;BME280;53654;54.152;19.432;2023-08-31T00:47:38;100412.85;;;17.86;100.00
66742;BME280;53654;54.152;19.432;2023-08-31T00:50:07;100411.31;;;17.85;100.00
66742;BME280;53654;54.152;19.432;2023-08-31T00:52:36;100408.86;;;17.84;100.00
66742;BME280;53654;54.152;19.432;2023-08-31T00:55:05;100409.21;;;17.84;100.00
66742;BME280;53654;54.152;19.432;2023-08-31T00:57:33;100409.11;;;17.83;100.00
66742;BME280;53654;54.152;19.432;2023-08-31T01:00:03;100408.52;;;17.80;100.00
66742;BME280;53654;54.152;19.432;2023-08-31T01:05:32;100412.23;;;17.71;100.00
66742;BME280;53654;54.152;19.432;2023-08-31T01:08:35;100410.60;;;17.68;100.00
66742;BME280;53654;54.152;19.432;2023-08-31T01:11:08;100416.19;;;17.65;100.00
66742;BME280;53654;54.152;19.432;2023-08-31T01:13:44;100413.43;;;17.63;100.00
66742;BME280;53654;54.152;19.432;2023-08-31T01:16:17;100410.48;;;17.62;100.00
66742;BME280;53654;54.152;19.432;2023-08-31T01:18:48;100410.16;;;17.61;100.00
66742;BME280;53654;54.152;19.432;2023-08-31T01:21:24;100409.70;;;17.60;100.00
66742;BME280;53654;54.152;19.432;2023-08-31T01:23:54;100411.06;;;17.57;100.00
66742;BME280;53654;54.152;19.432;2023-08-31T01:26:23;100403.71;;;17.56;100.00
66742;BME280;53654;54.152;19.432;2023-08-31T01:28:52;100403.55;;;17.55;100.00
66742;BME280;53654;54.152;19.432;2023-08-31T01:31:20;100399.89;;;17.54;100.00
66742;BME280;53654;54.152;19.432;2023-08-31T01:33:49;100400.76;;;17.55;100.00
66742;BME280;53654;54.152;19.432;2023-08-31T01:36:24;100401.41;;;17.56;100.00
66742;BME280;53654;54.152;19.432;2023-08-31T01:41:50;100409.16;;;17.52;100.00
66742;BME280;53654;54.152;19.432;2023-08-31T01:44:19;100410.79;;;17.51;100.00
66742;BME280;53654;54.152;19.432;2023-08-31T01:46:52;100410.14;;;17.50;100.00
66742;BME280;53654;54.152;19.432;2023-08-31T01:49:24;100408.65;;;17.48;100.00
66742;BME280;53654;54.152;19.432;2023-08-31T01:51:52;100411.10;;;17.48;100.00
66742;BME280;53654;54.152;19.432;2023-08-31T01:54:21;100408.50;;;17.47;100.00
66742;BME280;53654;54.152;19.432;2023-08-31T01:56:50;100408.34;;;17.46;100.00
66742;BME280;53654;54.152;19.432;2023-08-31T01:59:18;100408.65;;;17.48;100.00
66742;BME280;53654;54.152;19.432;2023-08-31T02:01:46;100408.05;;;17.49;100.00
66742;BME280;53654;54.152;19.432;2023-08-31T02:04:14;100410.79;;;17.51;100.00
66742;BME280;53654;54.152;19.432;2023-08-31T02:06:42;100412.08;;;17.50;100.00
66742;BME280;53654;54.152;19.432;2023-08-31T02:09:12;100412.42;;;17.50;100.00
66742;BME280;53654;54.152;19.432;2023-08-31T02:11:40;100417.23;;;17.49;100.00
66742;BME280;53654;54.152;19.432;2023-08-31T02:14:09;100420.44;;;17.48;100.00
66742;BME280;53654;54.152;19.432;2023-08-31T02:16:37;100420.84;;;17.47;100.00
66742;BME280;53654;54.152;19.432;2023-08-31T02:19:05;100419.89;;;17.44;100.00
66742;BME280;53654;54.152;19.432;2023-08-31T02:21:33;100420.32;;;17.43;100.00
66742;BME280;53654;54.152;19.432;2023-08-31T02:24:02;100420.72;;;17.41;100.00
66742;BME280;53654;54.152;19.432;2023-08-31T02:26:35;100417.05;;;17.41;100.00
66742;BME280;53654;54.152;19.432;2023-08-31T02:29:04;100421.48;;;17.40;100.00
66742;BME280;53654;54.152;19.432;2023-08-31T02:31:33;100423.63;;;17.39;100.00
66742;BME280;53654;54.152;19.432;2023-08-31T02:34:01;100423.98;;;17.39;100.00
66742;BME280;53654;54.152;19.432;2023-08-31T02:36:30;100424.48;;;17.40;100.00
66742;BME280;53654;54.152;19.432;2023-08-31T02:38:58;100423.98;;;17.39;100.00
66742;BME280;53654;54.152;19.432;2023-08-31T02:41:26;100423.47;;;17.39;100.00
66742;BME280;53654;54.152;19.432;2023-08-31T02:43:55;100425.04;;;17.39;100.00
66742;BME280;53654;54.152;19.432;2023-08-31T02:46:23;100425.41;;;17.39;100.00
66742;BME280;53654;54.152;19.432;2023-08-31T02:48:52;100427.27;;;17.37;100.00
66742;BME280;53654;54.152;19.432;2023-08-31T02:51:20;100432.27;;;17.35;100.00
66742;BME280;53654;54.152;19.432;2023-08-31T02:53:49;100436.58;;;17.33;100.00
66742;BME280;53654;54.152;19.432;2023-08-31T02:56:16;100436.23;;;17.33;100.00
66742;BME280;53654;54.152;19.432;2023-08-31T02:58:45;100436.85;;;17.31;100.00
66742;BME280;53654;54.152;19.432;2023-08-31T03:01:13;100437.80;;;17.29;100.00
66742;BME280;53654;54.152;19.432;2023-08-31T03:03:45;100438.14;;;17.25;100.00
66742;BME280;53654;54.152;19.432;2023-08-31T03:06:14;100441.63;;;17.22;100.00
66742;BME280;53654;54.152;19.432;2023-08-31T03:08:43;100438.39;;;17.20;100.00
66742;BME280;53654;54.152;19.432;2023-08-31T03:11:11;100434.41;;;17.18;100.00
66742;BME280;53654;54.152;19.432;2023-08-31T03:13:42;100427.79;;;17.16;100.00
66742;BME280;53654;54.152;19.432;2023-08-31T03:16:12;100422.33;;;17.12;100.00
66742;BME280;53654;54.152;19.432;2023-08-31T03:18:40;100426.54;;;17.07;100.00
66742;BME280;53654;54.152;19.432;2023-08-31T03:21:08;100436.58;;;17.07;100.00
66742;BME280;53654;54.152;19.432;2023-08-31T03:23:39;100440.14;;;17.06;100.00
66742;BME280;53654;54.152;19.432;2023-08-31T03:26:08;100435.09;;;17.04;100.00
66742;BME280;53654;54.152;19.432;2023-08-31T03:28:36;100438.51;;;17.03;100.00
66742;BME280;53654;54.152;19.432;2023-08-31T03:31:08;100444.92;;;17.01;100.00
66742;BME280;53654;54.152;19.432;2023-08-31T03:33:37;100447.05;;;17.01;100.00
66742;BME280;53654;54.152;19.432;2023-08-31T03:36:05;100450.84;;;16.99;100.00
66742;BME280;53654;54.152;19.432;2023-08-31T03:38:34;100450.88;;;16.98;100.00
66742;BME280;53654;54.152;19.432;2023-08-31T03:41:06;100450.60;;;16.96;100.00
66742;BME280;53654;54.152;19.432;2023-08-31T03:43:34;100450.08;;;16.96;100.00
66742;BME280;53654;54.152;19.432;2023-08-31T03:46:02;100457.29;;;16.96;100.00
66742;BME280;53654;54.152;19.432;2023-08-31T03:48:31;100456.71;;;16.97;100.00
66742;BME280;53654;54.152;19.432;2023-08-31T03:50:59;100462.14;;;16.98;100.00
66742;BME280;53654;54.152;19.432;2023-08-31T03:53:27;100465.10;;;16.99;100.00
66742;BME280;53654;54.152;19.432;2023-08-31T03:55:57;100458.23;;;16.99;100.00
66742;BME280;53654;54.152;19.432;2023-08-31T03:58:26;100456.12;;;16.99;100.00
66742;BME280;53654;54.152;19.432;2023-08-31T04:00:54;100452.65;;;16.98;100.00
66742;BME280;53654;54.152;19.432;2023-08-31T04:03:22;100451.29;;;16.96;100.00
66742;BME280;53654;54.152;19.432;2023-08-31T04:05:55;100452.95;;;16.94;100.00
66742;BME280;53654;54.152;19.432;2023-08-31T04:08:24;100453.39;;;16.92;100.00
66742;BME280;53654;54.152;19.432;2023-08-31T04:10:52;100454.30;;;16.91;100.00
66742;BME280;53654;54.152;19.432;2023-08-31T04:13:21;100457.90;;;16.89;100.00
66742;BME280;53654;54.152;19.432;2023-08-31T04:15:49;100462.48;;;16.90;100.00
66742;BME280;53654;54.152;19.432;2023-08-31T04:18:18;100466.23;;;16.88;100.00
66742;BME280;53654;54.152;19.432;2023-08-31T04:20:52;100471.59;;;16.86;100.00
66742;BME280;53654;54.152;19.432;2023-08-31T04:23:21;100473.45;;;16.84;100.00
66742;BME280;53654;54.152;19.432;2023-08-31T04:25:49;100476.52;;;16.82;100.00
66742;BME280;53654;54.152;19.432;2023-08-31T04:28:19;100479.30;;;16.83;100.00
66742;BME280;53654;54.152;19.432;2023-08-31T04:30:47;100477.89;;;16.83;100.00
66742;BME280;53654;54.152;19.432;2023-08-31T04:33:17;100474.05;;;16.82;100.00
66742;BME280;53654;54.152;19.432;2023-08-31T04:35:46;100475.52;;;16.80;100.00
66742;BME280;53654;54.152;19.432;2023-08-31T04:38:14;100476.45;;;16.79;100.00
66742;BME280;53654;54.152;19.432;2023-08-31T04:40:42;100470.64;;;16.79;100.00
66742;BME280;53654;54.152;19.432;2023-08-31T04:43:11;100472.25;;;16.79;100.00
66742;BME280;53654;54.152;19.432;2023-08-31T04:45:40;100472.48;;;16.77;100.00
66742;BME280;53654;54.152;19.432;2023-08-31T04:48:08;100477.58;;;16.77;100.00
66742;BME280;53654;54.152;19.432;2023-08-31T04:50:36;100483.86;;;16.79;100.00
66742;BME280;53654;54.152;19.432;2023-08-31T04:53:04;100482.18;;;16.81;100.00
66742;BME280;53654;54.152;19.432;2023-08-31T04:55:32;100482.33;;;16.82;100.00
66742;BME280;53654;54.152;19.432;2023-08-31T04:58:00;100480.65;;;16.85;100.00
66742;BME280;53654;54.152;19.432;2023-08-31T05:00:29;100482.20;;;16.85;100.00
66742;BME280;53654;54.152;19.432;2023-08-31T05:02:57;100483.13;;;16.84;100.00
66742;BME280;53654;54.152;19.432;2023-08-31T05:05:26;100485.77;;;16.84;100.00
66742;BME280;53654;54.152;19.432;2023-08-31T05:07:54;100489.98;;;16.85;100.00
66742;BME280;53654;54.152;19.432;2023-08-31T05:10:22;100496.27;;;16.86;100.00
66742;BME280;53654;54.152;19.432;2023-08-31T05:12:50;100495.02;;;16.86;100.00
66742;BME280;53654;54.152;19.432;2023-08-31T05:15:19;100497.67;;;16.86;100.00
66742;BME280;53654;54.152;19.432;2023-08-31T05:17:47;100500.68;;;16.86;100.00
66742;BME280;53654;54.152;19.432;2023-08-31T05:20:16;100503.53;;;16.85;100.00
66742;BME280;53654;54.152;19.432;2023-08-31T05:22:45;100506.47;;;16.86;100.00
66742;BME280;53654;54.152;19.432;2023-08-31T05:25:14;100507.71;;;16.86;100.00
66742;BME280;53654;54.152;19.432;2023-08-31T05:27:42;100510.67;;;16.87;100.00
66742;BME280;53654;54.152;19.432;2023-08-31T05:30:11;100512.64;;;16.86;100.00
66742;BME280;53654;54.152;19.432;2023-08-31T05:32:40;100509.89;;;16.85;100.00
66742;BME280;53654;54.152;19.432;2023-08-31T05:35:08;100510.75;;;16.85;100.00
66742;BME280;53654;54.152;19.432;2023-08-31T05:37:37;100512.48;;;16.86;100.00
66742;BME280;53654;54.152;19.432;2023-08-31T05:40:06;100516.88;;;16.86;100.00
66742;BME280;53654;54.152;19.432;2023-08-31T05:42:38;100519.19;;;16.85;100.00
66742;BME280;53654;54.152;19.432;2023-08-31T05:45:07;100519.88;;;16.86;100.00
66742;BME280;53654;54.152;19.432;2023-08-31T05:47:35;100524.25;;;16.87;100.00
66742;BME280;53654;54.152;19.432;2023-08-31T05:50:04;100529.38;;;16.86;100.00
66742;BME280;53654;54.152;19.432;2023-08-31T05:52:32;100530.38;;;16.88;100.00
66742;BME280;53654;54.152;19.432;2023-08-31T05:55:00;100530.87;;;16.89;100.00
66742;BME280;53654;54.152;19.432;2023-08-31T05:57:29;100532.27;;;16.89;100.00
66742;BME280;53654;54.152;19.432;2023-08-31T05:59:57;100538.21;;;16.90;100.00
66742;BME280;53654;54.152;19.432;2023-08-31T06:02:25;100537.83;;;16.91;100.00
66742;BME280;53654;54.152;19.432;2023-08-31T06:04:53;100536.78;;;16.91;100.00
66742;BME280;53654;54.152;19.432;2023-08-31T06:07:21;100541.19;;;16.91;100.00
66742;BME280;53654;54.152;19.432;2023-08-31T06:09:49;100544.88;;;16.91;100.00
66742;BME280;53654;54.152;19.432;2023-08-31T06:12:18;100550.68;;;16.92;100.00
66742;BME280;53654;54.152;19.432;2023-08-31T06:14:46;100552.12;;;16.90;100.00
66742;BME280;53654;54.152;19.432;2023-08-31T06:17:14;100552.98;;;16.91;100.00
66742;BME280;53654;54.152;19.432;2023-08-31T06:19:42;100555.63;;;16.91;100.00
66742;BME280;53654;54.152;19.432;2023-08-31T06:22:11;100552.77;;;16.92;100.00
66742;BME280;53654;54.152;19.432;2023-08-31T06:24:39;100552.10;;;16.91;100.00
66742;BME280;53654;54.152;19.432;2023-08-31T06:27:07;100548.06;;;16.91;100.00
66742;BME280;53654;54.152;19.432;2023-08-31T06:29:35;100553.69;;;16.91;100.00
66742;BME280;53654;54.152;19.432;2023-08-31T06:32:05;100556.89;;;16.90;100.00
66742;BME280;53654;54.152;19.432;2023-08-31T06:34:33;100558.35;;;16.89;100.00
66742;BME280;53654;54.152;19.432;2023-08-31T06:37:01;100555.73;;;16.88;100.00
66742;BME280;53654;54.152;19.432;2023-08-31T06:39:29;100558.37;;;16.88;100.00
66742;BME280;53654;54.152;19.432;2023-08-31T06:41:57;100556.93;;;16.89;100.00
66742;BME280;53654;54.152;19.432;2023-08-31T06:44:30;100558.71;;;16.88;100.00
66742;BME280;53654;54.152;19.432;2023-08-31T06:46:58;100560.48;;;16.88;100.00
66742;BME280;53654;54.152;19.432;2023-08-31T06:49:26;100562.27;;;16.88;100.00
66742;BME280;53654;54.152;19.432;2023-08-31T06:51:55;100569.83;;;16.88;100.00
66742;BME280;53654;54.152;19.432;2023-08-31T06:54:23;100572.30;;;16.88;100.00
66742;BME280;53654;54.152;19.432;2023-08-31T06:56:51;100574.08;;;16.88;100.00
66742;BME280;53654;54.152;19.432;2023-08-31T06:59:19;100577.58;;;16.88;100.00
66742;BME280;53654;54.152;19.432;2023-08-31T07:01:47;100573.31;;;16.89;100.00
66742;BME280;53654;54.152;19.432;2023-08-31T07:04:16;100573.64;;;16.90;100.00
66742;BME280;53654;54.152;19.432;2023-08-31T07:06:44;100575.68;;;16.92;100.00
66742;BME280;53654;54.152;19.432;2023-08-31T07:09:12;100578.28;;;16.93;100.00
66742;BME280;53654;54.152;19.432;2023-08-31T07:11:41;100579.29;;;16.94;100.00
66742;BME280;53654;54.152;19.432;2023-08-31T07:14:09;100582.38;;;16.96;100.00
66742;BME280;53654;54.152;19.432;2023-08-31T07:16:37;100580.88;;;16.99;100.00
66742;BME280;53654;54.152;19.432;2023-08-31T07:19:05;100577.83;;;17.00;100.00
66742;BME280;53654;54.152;19.432;2023-08-31T07:21:33;100576.52;;;17.02;100.00
66742;BME280;53654;54.152;19.432;2023-08-31T07:24:02;100575.76;;;17.04;100.00
66742;BME280;53654;54.152;19.432;2023-08-31T07:26:30;100577.06;;;17.06;100.00
66742;BME280;53654;54.152;19.432;2023-08-31T07:28:58;100578.05;;;17.08;99.85
66742;BME280;53654;54.152;19.432;2023-08-31T07:31:29;100573.44;;;17.09;99.61
66742;BME280;53654;54.152;19.432;2023-08-31T07:33:58;100575.89;;;17.10;99.49
66742;BME280;53654;54.152;19.432;2023-08-31T07:36:26;100577.57;;;17.12;99.75
66742;BME280;53654;54.152;19.432;2023-08-31T07:38:54;100580.25;;;17.16;100.00
66742;BME280;53654;54.152;19.432;2023-08-31T07:41:23;100588.59;;;17.19;100.00
66742;BME280;53654;54.152;19.432;2023-08-31T07:43:51;100594.17;;;17.20;99.63
66742;BME280;53654;54.152;19.432;2023-08-31T07:46:31;100595.21;;;17.20;99.42
66742;BME280;53654;54.152;19.432;2023-08-31T07:48:59;100597.42;;;17.23;98.88
66742;BME280;53654;54.152;19.432;2023-08-31T07:51:28;100597.89;;;17.24;98.09
66742;BME280;53654;54.152;19.432;2023-08-31T07:53:56;100594.50;;;17.25;97.78
66742;BME280;53654;54.152;19.432;2023-08-31T07:56:24;100592.00;;;17.26;98.02
66742;BME280;53654;54.152;19.432;2023-08-31T07:58:52;100586.35;;;17.26;98.24
66742;BME280;53654;54.152;19.432;2023-08-31T08:01:21;100580.90;;;17.26;98.19
66742;BME280;53654;54.152;19.432;2023-08-31T08:03:50;100581.78;;;17.26;98.09
66742;BME280;53654;54.152;19.432;2023-08-31T08:06:18;100581.41;;;17.27;98.14
66742;BME280;53654;54.152;19.432;2023-08-31T08:08:46;100586.30;;;17.28;98.13
66742;BME280;53654;54.152;19.432;2023-08-31T08:11:14;100588.75;;;17.28;97.65
66742;BME280;53654;54.152;19.432;2023-08-31T08:13:43;100590.45;;;17.30;97.78
66742;BME280;53654;54.152;19.432;2023-08-31T08:16:11;100596.02;;;17.32;97.65
66742;BME280;53654;54.152;19.432;2023-08-31T08:18:40;100604.41;;;17.34;97.36
66742;BME280;53654;54.152;19.432;2023-08-31T08:21:08;100612.22;;;17.37;97.12
66742;BME280;53654;54.152;19.432;2023-08-31T08:23:37;100608.67;;;17.37;96.85
66742;BME280;53654;54.152;19.432;2023-08-31T08:26:05;100611.18;;;17.41;97.39
66742;BME280;53654;54.152;19.432;2023-08-31T08:28:33;100612.39;;;17.46;98.17
66742;BME280;53654;54.152;19.432;2023-08-31T08:31:01;100618.83;;;17.53;98.24
66742;BME280;53654;54.152;19.432;2023-08-31T08:33:33;100620.77;;;17.57;97.98
66742;BME280;53654;54.152;19.432;2023-08-31T08:36:01;100627.08;;;17.63;98.28
66742;BME280;53654;54.152;19.432;2023-08-31T08:38:30;100630.52;;;17.70;99.07
66742;BME280;53654;54.152;19.432;2023-08-31T08:41:06;100628.46;;;17.78;99.16
66742;BME280;53654;54.152;19.432;2023-08-31T08:43:36;100626.42;;;17.84;99.54
66742;BME280;53654;54.152;19.432;2023-08-31T08:46:05;100626.16;;;17.91;99.32
66742;BME280;53654;54.152;19.432;2023-08-31T08:48:34;100628.22;;;17.96;97.28
66742;BME280;53654;54.152;19.432;2023-08-31T08:51:05;100626.50;;;18.04;97.17
66742;BME280;53654;54.152;19.432;2023-08-31T08:53:35;100627.25;;;18.11;96.50
66742;BME280;53654;54.152;19.432;2023-08-31T08:56:06;100629.80;;;18.18;96.48
66742;BME280;53654;54.152;19.432;2023-08-31T08:58:34;100630.14;;;18.22;96.48
66742;BME280;53654;54.152;19.432;2023-08-31T09:01:03;100633.23;;;18.28;96.66
66742;BME280;53654;54.152;19.432;2023-08-31T09:03:32;100633.77;;;18.36;96.93
66742;BME280;53654;54.152;19.432;2023-08-31T09:06:00;100635.10;;;18.51;96.73
66742;BME280;53654;54.152;19.432;2023-08-31T09:08:35;100632.71;;;18.70;96.63
66742;BME280;53654;54.152;19.432;2023-08-31T09:11:05;100630.27;;;18.89;93.90
66742;BME280;53654;54.152;19.432;2023-08-31T09:13:33;100626.64;;;19.07;91.74
66742;BME280;53654;54.152;19.432;2023-08-31T09:16:01;100630.67;;;19.23;90.56
66742;BME280;53654;54.152;19.432;2023-08-31T09:18:31;100628.66;;;19.36;88.91
66742;BME280;53654;54.152;19.432;2023-08-31T09:21:02;100630.62;;;19.47;87.86
66742;BME280;53654;54.152;19.432;2023-08-31T09:23:30;100627.73;;;19.56;87.55
66742;BME280;53654;54.152;19.432;2023-08-31T09:25:58;100627.08;;;19.59;86.83
66742;BME280;53654;54.152;19.432;2023-08-31T09:28:27;100632.55;;;19.59;86.50
66742;BME280;53654;54.152;19.432;2023-08-31T09:31:05;100635.41;;;19.58;86.43
66742;BME280;53654;54.152;19.432;2023-08-31T09:33:35;100639.79;;;19.59;87.77
66742;BME280;53654;54.152;19.432;2023-08-31T09:36:07;100643.09;;;19.60;86.95
66742;BME280;53654;54.152;19.432;2023-08-31T09:38:42;100650.80;;;19.62;85.44
66742;BME280;53654;54.152;19.432;2023-08-31T09:41:14;100644.35;;;19.60;83.89
66742;BME280;53654;54.152;19.432;2023-08-31T09:43:43;100644.33;;;19.61;84.31
66742;BME280;53654;54.152;19.432;2023-08-31T09:46:11;100645.02;;;19.65;85.23
66742;BME280;53654;54.152;19.432;2023-08-31T09:48:42;100645.06;;;19.72;84.33
66742;BME280;53654;54.152;19.432;2023-08-31T09:51:11;100651.29;;;19.82;84.33
66742;BME280;53654;54.152;19.432;2023-08-31T09:53:42;100650.84;;;19.91;84.15
66742;BME280;53654;54.152;19.432;2023-08-31T09:56:13;100656.12;;;20.02;83.46
66742;BME280;53654;54.152;19.432;2023-08-31T09:58:44;100652.54;;;20.10;81.72
66742;BME280;53654;54.152;19.432;2023-08-31T10:01:12;100651.84;;;20.17;81.40
66742;BME280;53654;54.152;19.432;2023-08-31T10:03:56;100651.20;;;20.23;81.46
66742;BME280;53654;54.152;19.432;2023-08-31T10:06:24;100648.89;;;20.30;79.29
66742;BME280;53654;54.152;19.432;2023-08-31T10:08:54;100651.02;;;20.37;79.09
66742;BME280;53654;54.152;19.432;2023-08-31T10:11:24;100655.05;;;20.42;78.21
66742;BME280;53654;54.152;19.432;2023-08-31T10:13:55;100655.23;;;20.45;77.52
66742;BME280;53654;54.152;19.432;2023-08-31T10:16:26;100653.41;;;20.50;77.01
66742;BME280;53654;54.152;19.432;2023-08-31T10:18:58;100649.59;;;20.52;77.75
66742;BME280;53654;54.152;19.432;2023-08-31T10:21:26;100647.94;;;20.53;78.24
66742;BME280;53654;54.152;19.432;2023-08-31T10:23:54;100646.61;;;20.51;76.64
66742;BME280;53654;54.152;19.432;2023-08-31T10:26:28;100647.13;;;20.55;77.43
66742;BME280;53654;54.152;19.432;2023-08-31T10:28:58;100648.06;;;20.61;76.60
66742;BME280;53654;54.152;19.432;2023-08-31T10:31:31;100641.36;;;20.67;74.58
66742;BME280;53654;54.152;19.432;2023-08-31T10:34:02;100640.59;;;20.72;72.61
66742;BME280;53654;54.152;19.432;2023-08-31T10:36:44;100642.54;;;20.78;72.95
66742;BME280;53654;54.152;19.432;2023-08-31T10:39:16;100637.38;;;20.86;74.81
66742;BME280;53654;54.152;19.432;2023-08-31T10:42:00;100638.70;;;20.91;74.03
66742;BME280;53654;54.152;19.432;2023-08-31T10:44:31;100636.02;;;20.92;74.29
66742;BME280;53654;54.152;19.432;2023-08-31T10:47:00;100639.53;;;20.96;75.32
66742;BME280;53654;54.152;19.432;2023-08-31T10:49:31;100633.57;;;20.98;75.26
66742;BME280;53654;54.152;19.432;2023-08-31T10:52:17;100635.14;;;21.02;74.40
66742;BME280;53654;54.152;19.432;2023-08-31T10:55:07;100633.81;;;21.00;72.32
66742;BME280;53654;54.152;19.432;2023-08-31T10:57:35;100633.39;;;21.04;70.36
66742;BME280;53654;54.152;19.432;2023-08-31T11:00:04;100633.65;;;21.09;69.56
66742;BME280;53654;54.152;19.432;2023-08-31T11:05:06;100634.63;;;21.14;66.45
66742;BME280;53654;54.152;19.432;2023-08-31T11:07:36;100635.54;;;21.17;67.44
66742;BME280;53654;54.152;19.432;2023-08-31T11:10:19;100634.34;;;21.19;67.08
66742;BME280;53654;54.152;19.432;2023-08-31T11:12:51;100634.14;;;21.20;67.74
66742;BME280;53654;54.152;19.432;2023-08-31T11:15:22;100633.21;;;21.21;67.11
66742;BME280;53654;54.152;19.432;2023-08-31T11:17:51;100631.42;;;21.25;67.40
66742;BME280;53654;54.152;19.432;2023-08-31T11:20:21;100631.62;;;21.28;67.40
66742;BME280;53654;54.152;19.432;2023-08-31T11:22:51;100630.33;;;21.32;68.00
66742;BME280;53654;54.152;19.432;2023-08-31T11:25:22;100631.01;;;21.39;67.71
66742;BME280;53654;54.152;19.432;2023-08-31T11:28:01;100624.80;;;21.42;63.51
66742;BME280;53654;54.152;19.432;2023-08-31T11:30:33;100620.66;;;21.46;63.67
66742;BME280;53654;54.152;19.432;2023-08-31T11:33:08;100619.23;;;21.52;66.31
66742;BME280;53654;54.152;19.432;2023-08-31T11:35:43;100622.63;;;21.65;67.68
66742;BME280;53654;54.152;19.432;2023-08-31T11:38:12;100622.00;;;22.04;65.94
66742;BME280;53654;54.152;19.432;2023-08-31T11:40:41;100625.91;;;22.16;63.80
66742;BME280;53654;54.152;19.432;2023-08-31T11:43:09;100621.54;;;22.12;61.47
66742;BME280;53654;54.152;19.432;2023-08-31T11:45:38;100622.87;;;22.04;62.33
66742;BME280;53654;54.152;19.432;2023-08-31T11:48:07;100620.48;;;21.93;62.05
66742;BME280;53654;54.152;19.432;2023-08-31T11:50:37;100620.02;;;21.85;62.84
66742;BME280;53654;54.152;19.432;2023-08-31T11:53:08;100620.61;;;21.81;62.43
66742;BME280;53654;54.152;19.432;2023-08-31T11:55:36;100620.61;;;21.81;63.27
66742;BME280;53654;54.152;19.432;2023-08-31T11:58:07;100621.35;;;21.81;63.13
66742;BME280;53654;54.152;19.432;2023-08-31T12:00:35;100619.52;;;21.82;63.45
66742;BME280;53654;54.152;19.432;2023-08-31T12:03:03;100615.09;;;21.82;62.47
66742;BME280;53654;54.152;19.432;2023-08-31T12:05:45;100614.67;;;21.83;62.63
66742;BME280;53654;54.152;19.432;2023-08-31T12:08:15;100615.99;;;21.82;62.39
66742;BME280;53654;54.152;19.432;2023-08-31T12:10:46;100617.68;;;21.83;63.59
66742;BME280;53654;54.152;19.432;2023-08-31T12:13:14;100616.83;;;21.82;62.20
66742;BME280;53654;54.152;19.432;2023-08-31T12:15:43;100615.14;;;21.81;62.15
66742;BME280;53654;54.152;19.432;2023-08-31T12:18:13;100617.52;;;21.80;62.01
66742;BME280;53654;54.152;19.432;2023-08-31T12:23:12;100616.23;;;21.74;61.34
66742;BME280;53654;54.152;19.432;2023-08-31T12:25:52;100618.05;;;21.77;63.31
66742;BME280;53654;54.152;19.432;2023-08-31T12:28:22;100615.79;;;21.76;63.45
66742;BME280;53654;54.152;19.432;2023-08-31T12:30:52;100610.98;;;21.73;62.49
66742;BME280;53654;54.152;19.432;2023-08-31T12:33:21;100615.23;;;21.73;62.24
66742;BME280;53654;54.152;19.432;2023-08-31T12:35:49;100618.50;;;21.75;63.51
66742;BME280;53654;54.152;19.432;2023-08-31T12:38:17;100619.38;;;21.78;63.81
66742;BME280;53654;54.152;19.432;2023-08-31T12:40:47;100614.56;;;21.79;62.81
66742;BME280;53654;54.152;19.432;2023-08-31T12:43:15;100616.61;;;21.77;62.10
66742;BME280;53654;54.152;19.432;2023-08-31T12:45:45;100620.09;;;21.81;64.36
66742;BME280;53654;54.152;19.432;2023-08-31T12:48:13;100618.27;;;21.85;63.16
66742;BME280;53654;54.152;19.432;2023-08-31T12:50:41;100618.78;;;21.89;62.74
66742;BME280;53654;54.152;19.432;2023-08-31T12:53:10;100618.94;;;21.89;62.18
66742;BME280;53654;54.152;19.432;2023-08-31T12:55:39;100618.30;;;21.91;62.27